KHRX

Hereford Municipal Airport

Hereford, Texas, USA
METAR KHRX 191055Z AUTO 20009KT 10SM CLR 20/18 A3002 RMK AO2 T02000178
Observed Flight Rules
Sep-19 @ 10:55 UTC (9 minutes ago) Visual Flight Rules
Wind Visibility Clouds
200° at 9 knots 10 miles
  • Clear skies
Temperatures Readings
Current 20°C / 68°F
Dewpoint 18°C / 64°F
Humidity 88%
Altimeter 30.02" Hg
Pressure 1017 hPa
Elevation 1154
METAR KHRX 191055Z AUTO 20009KT 10SM CLR 20/18 A3002 RMK AO2 T02000178
Observed Flight Rules
Sep-19 @ 10:55 UTC
(9 minutes ago)
VFR
Wind Visibility
200° at 9 knots 10 miles
Clouds
  • Clear skies
Temperature Dewpoint
20°C / 68°F 18°C / 64°F
Humidity Altimeter Pressure
88% 30.02" Hg 1017 hPa